Terminal Aerodrome Forecast
Issued by NWS

Home | Current Version | Previous Version | Text Only | Print | Product List | Glossary On
Versions: 1 2 3 4 5 6 7 8 9 10 11 12 13 14 15 16 17 18 19 20 21 22 23 24 25 26
000
FTUS41 KCAR 011100
TAFHUL
TAF
KHUL 011120Z 0112/0212 VRB02KT 3SM BR BKN005
     FM011300 VRB03KT P6SM SCT020
     FM011800 20006KT P6SM VCSH BKN040
     FM020300 20007KT P6SM SCT025
     FM020600 VRB03KT 2SM BR BKN008
     FM021100 VRB03KT 6SM BR BKN020=

USA.gov is the U.S. government's official web portal to all federal, state and local government web resources and services.